sensor_id;sensor_type;location;lat;lon;timestamp;P1;durP1;ratioP1;P2;durP2;ratioP2
4738;SDS011;2383;48.632;10.156;2022-08-02T00:00:25;1.50;;;1.17;;
4738;SDS011;2383;48.632;10.156;2022-08-02T00:04:27;3.17;;;1.20;;
4738;SDS011;2383;48.632;10.156;2022-08-02T00:08:29;1.15;;;0.95;;
4738;SDS011;2383;48.632;10.156;2022-08-02T00:12:41;1.65;;;1.20;;
4738;SDS011;2383;48.632;10.156;2022-08-02T00:16:43;3.40;;;1.23;;
4738;SDS011;2383;48.632;10.156;2022-08-02T00:20:45;3.92;;;1.33;;
4738;SDS011;2383;48.632;10.156;2022-08-02T00:24:49;2.47;;;1.10;;
4738;SDS011;2383;48.632;10.156;2022-08-02T00:28:51;1.58;;;1.20;;
4738;SDS011;2383;48.632;10.156;2022-08-02T00:32:57;4.55;;;1.00;;
4738;SDS011;2383;48.632;10.156;2022-08-02T00:36:59;1.45;;;1.13;;
4738;SDS011;2383;48.632;10.156;2022-08-02T00:41:01;2.03;;;1.20;;
4738;SDS011;2383;48.632;10.156;2022-08-02T00:45:03;1.73;;;1.10;;
4738;SDS011;2383;48.632;10.156;2022-08-02T00:49:05;1.40;;;1.13;;
4738;SDS011;2383;48.632;10.156;2022-08-02T00:53:10;2.13;;;1.00;;
4738;SDS011;2383;48.632;10.156;2022-08-02T00:57:11;4.53;;;1.30;;
4738;SDS011;2383;48.632;10.156;2022-08-02T01:01:13;2.13;;;1.02;;
4738;SDS011;2383;48.632;10.156;2022-08-02T01:05:15;4.97;;;1.10;;
4738;SDS011;2383;48.632;10.156;2022-08-02T01:09:20;1.50;;;1.40;;
4738;SDS011;2383;48.632;10.156;2022-08-02T01:13:26;1.52;;;1.30;;
4738;SDS011;2383;48.632;10.156;2022-08-02T01:17:35;3.00;;;1.08;;
4738;SDS011;2383;48.632;10.156;2022-08-02T01:21:48;2.30;;;1.23;;
4738;SDS011;2383;48.632;10.156;2022-08-02T01:30:43;3.08;;;1.40;;
4738;SDS011;2383;48.632;10.156;2022-08-02T01:39:24;3.17;;;1.38;;
4738;SDS011;2383;48.632;10.156;2022-08-02T01:43:32;4.15;;;1.30;;
4738;SDS011;2383;48.632;10.156;2022-08-02T01:47:37;1.52;;;1.00;;
4738;SDS011;2383;48.632;10.156;2022-08-02T01:51:40;3.63;;;1.30;;
4738;SDS011;2383;48.632;10.156;2022-08-02T01:56:02;1.73;;;1.25;;
4738;SDS011;2383;48.632;10.156;2022-08-02T02:00:07;4.95;;;1.88;;
4738;SDS011;2383;48.632;10.156;2022-08-02T02:04:11;2.92;;;1.40;;
4738;SDS011;2383;48.632;10.156;2022-08-02T02:08:16;3.03;;;1.60;;
4738;SDS011;2383;48.632;10.156;2022-08-02T02:12:27;1.42;;;1.20;;
4738;SDS011;2383;48.632;10.156;2022-08-02T02:16:36;4.53;;;1.63;;
4738;SDS011;2383;48.632;10.156;2022-08-02T02:20:41;3.05;;;1.42;;
4738;SDS011;2383;48.632;10.156;2022-08-02T02:24:43;3.22;;;1.50;;
4738;SDS011;2383;48.632;10.156;2022-08-02T02:28:45;4.13;;;1.10;;
4738;SDS011;2383;48.632;10.156;2022-08-02T02:32:48;2.67;;;1.15;;
4738;SDS011;2383;48.632;10.156;2022-08-02T02:36:52;4.40;;;1.55;;
4738;SDS011;2383;48.632;10.156;2022-08-02T02:40:57;2.42;;;1.55;;
4738;SDS011;2383;48.632;10.156;2022-08-02T02:45:12;1.55;;;1.42;;
4738;SDS011;2383;48.632;10.156;2022-08-02T02:49:15;6.57;;;1.88;;
4738;SDS011;2383;48.632;10.156;2022-08-02T02:53:19;3.13;;;1.55;;
4738;SDS011;2383;48.632;10.156;2022-08-02T02:57:22;2.20;;;1.30;;
4738;SDS011;2383;48.632;10.156;2022-08-02T03:01:25;4.60;;;1.25;;
4738;SDS011;2383;48.632;10.156;2022-08-02T03:05:53;5.00;;;1.90;;
4738;SDS011;2383;48.632;10.156;2022-08-02T03:09:55;4.35;;;1.65;;
4738;SDS011;2383;48.632;10.156;2022-08-02T03:13:57;5.40;;;1.60;;
4738;SDS011;2383;48.632;10.156;2022-08-02T03:18:00;4.15;;;1.90;;
4738;SDS011;2383;48.632;10.156;2022-08-02T03:22:09;4.13;;;1.85;;
4738;SDS011;2383;48.632;10.156;2022-08-02T03:26:12;2.50;;;1.70;;
4738;SDS011;2383;48.632;10.156;2022-08-02T03:30:14;6.63;;;1.75;;
4738;SDS011;2383;48.632;10.156;2022-08-02T03:34:20;3.15;;;1.50;;
4738;SDS011;2383;48.632;10.156;2022-08-02T03:38:22;2.97;;;1.60;;
4738;SDS011;2383;48.632;10.156;2022-08-02T03:47:51;1.85;;;1.70;;
4738;SDS011;2383;48.632;10.156;2022-08-02T03:51:53;3.28;;;1.80;;
4738;SDS011;2383;48.632;10.156;2022-08-02T03:55:55;12.63;;;2.00;;
4738;SDS011;2383;48.632;10.156;2022-08-02T03:59:57;2.38;;;1.85;;
4738;SDS011;2383;48.632;10.156;2022-08-02T04:03:59;4.00;;;1.75;;
4738;SDS011;2383;48.632;10.156;2022-08-02T04:08:01;2.00;;;1.80;;
4738;SDS011;2383;48.632;10.156;2022-08-02T04:12:31;2.67;;;1.90;;
4738;SDS011;2383;48.632;10.156;2022-08-02T04:16:43;4.75;;;2.03;;
4738;SDS011;2383;48.632;10.156;2022-08-02T04:20:45;2.50;;;2.10;;
4738;SDS011;2383;48.632;10.156;2022-08-02T04:24:51;9.27;;;2.30;;
4738;SDS011;2383;48.632;10.156;2022-08-02T04:28:57;5.07;;;2.00;;
4738;SDS011;2383;48.632;10.156;2022-08-02T04:33:00;2.95;;;1.80;;
4738;SDS011;2383;48.632;10.156;2022-08-02T04:37:07;2.35;;;2.15;;
4738;SDS011;2383;48.632;10.156;2022-08-02T04:41:12;5.57;;;2.17;;
4738;SDS011;2383;48.632;10.156;2022-08-02T04:45:13;2.63;;;2.30;;
4738;SDS011;2383;48.632;10.156;2022-08-02T04:49:17;3.25;;;2.17;;
4738;SDS011;2383;48.632;10.156;2022-08-02T04:53:19;6.05;;;2.72;;
4738;SDS011;2383;48.632;10.156;2022-08-02T04:57:21;2.83;;;2.10;;
4738;SDS011;2383;48.632;10.156;2022-08-02T05:01:53;3.33;;;2.30;;
4738;SDS011;2383;48.632;10.156;2022-08-02T05:05:54;3.40;;;2.35;;
4738;SDS011;2383;48.632;10.156;2022-08-02T05:09:56;3.45;;;2.53;;
4738;SDS011;2383;48.632;10.156;2022-08-02T05:13:58;4.35;;;2.30;;
4738;SDS011;2383;48.632;10.156;2022-08-02T05:18:00;4.22;;;2.60;;
4738;SDS011;2383;48.632;10.156;2022-08-02T05:22:02;7.25;;;2.72;;
4738;SDS011;2383;48.632;10.156;2022-08-02T05:26:08;3.45;;;2.50;;
4738;SDS011;2383;48.632;10.156;2022-08-02T05:30:11;2.35;;;2.15;;
4738;SDS011;2383;48.632;10.156;2022-08-02T05:34:13;4.80;;;2.83;;
4738;SDS011;2383;48.632;10.156;2022-08-02T05:38:15;6.05;;;2.70;;
4738;SDS011;2383;48.632;10.156;2022-08-02T05:42:18;4.45;;;2.60;;
4738;SDS011;2383;48.632;10.156;2022-08-02T05:46:21;3.25;;;2.53;;
4738;SDS011;2383;48.632;10.156;2022-08-02T05:50:23;7.32;;;2.95;;
4738;SDS011;2383;48.632;10.156;2022-08-02T05:54:26;3.35;;;2.40;;
4738;SDS011;2383;48.632;10.156;2022-08-02T05:58:55;8.95;;;2.78;;
4738;SDS011;2383;48.632;10.156;2022-08-02T06:07:20;5.25;;;3.17;;
4738;SDS011;2383;48.632;10.156;2022-08-02T06:11:27;5.65;;;2.80;;
4738;SDS011;2383;48.632;10.156;2022-08-02T06:15:38;4.70;;;3.10;;
4738;SDS011;2383;48.632;10.156;2022-08-02T06:19:54;7.28;;;3.10;;
4738;SDS011;2383;48.632;10.156;2022-08-02T06:23:59;4.72;;;3.10;;
4738;SDS011;2383;48.632;10.156;2022-08-02T06:28:03;3.95;;;3.20;;
4738;SDS011;2383;48.632;10.156;2022-08-02T06:32:11;6.65;;;3.03;;
4738;SDS011;2383;48.632;10.156;2022-08-02T06:40:50;3.25;;;2.60;;
4738;SDS011;2383;48.632;10.156;2022-08-02T06:45:07;3.40;;;2.90;;
4738;SDS011;2383;48.632;10.156;2022-08-02T06:49:09;3.08;;;2.72;;
4738;SDS011;2383;48.632;10.156;2022-08-02T06:53:11;3.50;;;3.20;;
4738;SDS011;2383;48.632;10.156;2022-08-02T06:57:15;5.90;;;3.25;;
4738;SDS011;2383;48.632;10.156;2022-08-02T07:01:25;3.05;;;2.85;;
4738;SDS011;2383;48.632;10.156;2022-08-02T07:05:39;4.78;;;3.30;;
4738;SDS011;2383;48.632;10.156;2022-08-02T07:09:41;3.80;;;2.70;;
4738;SDS011;2383;48.632;10.156;2022-08-02T07:14:01;5.00;;;3.17;;
4738;SDS011;2383;48.632;10.156;2022-08-02T07:18:06;5.80;;;3.17;;
4738;SDS011;2383;48.632;10.156;2022-08-02T07:22:08;5.70;;;3.13;;
4738;SDS011;2383;48.632;10.156;2022-08-02T07:26:11;6.05;;;3.53;;
4738;SDS011;2383;48.632;10.156;2022-08-02T07:30:13;7.65;;;3.17;;
4738;SDS011;2383;48.632;10.156;2022-08-02T07:34:15;4.55;;;3.13;;
4738;SDS011;2383;48.632;10.156;2022-08-02T07:38:20;8.48;;;3.15;;
4738;SDS011;2383;48.632;10.156;2022-08-02T07:42:25;6.85;;;3.72;;
4738;SDS011;2383;48.632;10.156;2022-08-02T07:46:28;4.72;;;3.22;;
4738;SDS011;2383;48.632;10.156;2022-08-02T07:50:31;4.13;;;3.13;;
4738;SDS011;2383;48.632;10.156;2022-08-02T07:54:34;5.88;;;3.40;;
4738;SDS011;2383;48.632;10.156;2022-08-02T07:58:36;4.47;;;3.03;;
4738;SDS011;2383;48.632;10.156;2022-08-02T08:02:38;4.72;;;2.75;;
4738;SDS011;2383;48.632;10.156;2022-08-02T08:06:40;2.85;;;1.90;;
4738;SDS011;2383;48.632;10.156;2022-08-02T08:10:42;3.95;;;2.70;;
4738;SDS011;2383;48.632;10.156;2022-08-02T08:14:44;3.55;;;2.15;;
4738;SDS011;2383;48.632;10.156;2022-08-02T08:18:50;2.92;;;2.63;;
4738;SDS011;2383;48.632;10.156;2022-08-02T08:22:52;4.15;;;2.30;;
4738;SDS011;2383;48.632;10.156;2022-08-02T08:26:54;3.50;;;2.30;;
4738;SDS011;2383;48.632;10.156;2022-08-02T08:30:56;2.65;;;2.17;;
4738;SDS011;2383;48.632;10.156;2022-08-02T08:34:58;4.13;;;2.30;;
4738;SDS011;2383;48.632;10.156;2022-08-02T08:39:04;2.58;;;2.38;;
4738;SDS011;2383;48.632;10.156;2022-08-02T08:43:06;3.05;;;2.20;;
4738;SDS011;2383;48.632;10.156;2022-08-02T08:47:08;2.78;;;2.22;;
4738;SDS011;2383;48.632;10.156;2022-08-02T08:51:14;3.15;;;2.42;;
4738;SDS011;2383;48.632;10.156;2022-08-02T08:55:21;2.50;;;2.25;;
4738;SDS011;2383;48.632;10.156;2022-08-02T08:59:27;8.02;;;2.38;;
4738;SDS011;2383;48.632;10.156;2022-08-02T09:03:28;2.10;;;1.88;;
4738;SDS011;2383;48.632;10.156;2022-08-02T09:07:39;3.53;;;1.88;;
4738;SDS011;2383;48.632;10.156;2022-08-02T09:11:43;1.88;;;1.77;;
4738;SDS011;2383;48.632;10.156;2022-08-02T09:15:51;3.90;;;1.98;;
4738;SDS011;2383;48.632;10.156;2022-08-02T09:20:07;2.63;;;2.10;;
4738;SDS011;2383;48.632;10.156;2022-08-02T09:24:19;2.75;;;2.13;;
4738;SDS011;2383;48.632;10.156;2022-08-02T09:28:30;4.68;;;1.90;;
4738;SDS011;2383;48.632;10.156;2022-08-02T09:32:47;3.30;;;1.90;;
4738;SDS011;2383;48.632;10.156;2022-08-02T09:36:50;1.90;;;1.70;;
4738;SDS011;2383;48.632;10.156;2022-08-02T09:40:55;3.00;;;1.88;;
4738;SDS011;2383;48.632;10.156;2022-08-02T09:44:58;2.50;;;2.10;;
4738;SDS011;2383;48.632;10.156;2022-08-02T09:49:02;2.92;;;1.90;;
4738;SDS011;2383;48.632;10.156;2022-08-02T09:53:27;4.32;;;1.60;;
4738;SDS011;2383;48.632;10.156;2022-08-02T09:57:31;3.63;;;1.50;;
4738;SDS011;2383;48.632;10.156;2022-08-02T10:01:38;1.90;;;1.70;;
4738;SDS011;2383;48.632;10.156;2022-08-02T10:05:51;2.53;;;1.88;;
4738;SDS011;2383;48.632;10.156;2022-08-02T10:10:01;1.38;;;1.27;;
4738;SDS011;2383;48.632;10.156;2022-08-02T10:14:03;1.80;;;1.55;;
4738;SDS011;2383;48.632;10.156;2022-08-02T10:18:07;2.17;;;1.60;;
4738;SDS011;2383;48.632;10.156;2022-08-02T10:22:30;1.83;;;1.65;;
4738;SDS011;2383;48.632;10.156;2022-08-02T10:26:34;2.10;;;1.90;;
4738;SDS011;2383;48.632;10.156;2022-08-02T10:30:39;2.30;;;1.50;;
4738;SDS011;2383;48.632;10.156;2022-08-02T10:38:52;2.15;;;1.63;;
4738;SDS011;2383;48.632;10.156;2022-08-02T10:42:55;1.60;;;1.50;;
4738;SDS011;2383;48.632;10.156;2022-08-02T10:51:17;4.15;;;1.70;;
4738;SDS011;2383;48.632;10.156;2022-08-02T10:55:24;1.83;;;1.65;;
4738;SDS011;2383;48.632;10.156;2022-08-02T10:59:30;2.70;;;1.60;;
4738;SDS011;2383;48.632;10.156;2022-08-02T11:03:37;3.03;;;1.73;;
4738;SDS011;2383;48.632;10.156;2022-08-02T11:07:44;2.75;;;1.63;;
4738;SDS011;2383;48.632;10.156;2022-08-02T11:16:07;3.72;;;2.13;;
4738;SDS011;2383;48.632;10.156;2022-08-02T11:20:13;1.92;;;1.48;;
4738;SDS011;2383;48.632;10.156;2022-08-02T11:24:38;1.95;;;1.70;;
4738;SDS011;2383;48.632;10.156;2022-08-02T11:28:46;1.60;;;1.50;;
4738;SDS011;2383;48.632;10.156;2022-08-02T11:32:49;2.97;;;1.70;;
4738;SDS011;2383;48.632;10.156;2022-08-02T11:36:55;2.33;;;1.70;;
4738;SDS011;2383;48.632;10.156;2022-08-02T11:40:57;2.67;;;1.60;;
4738;SDS011;2383;48.632;10.156;2022-08-02T11:45:12;2.08;;;1.63;;
4738;SDS011;2383;48.632;10.156;2022-08-02T11:49:22;6.95;;;1.65;;
4738;SDS011;2383;48.632;10.156;2022-08-02T11:53:32;2.15;;;1.95;;
4738;SDS011;2383;48.632;10.156;2022-08-02T11:57:42;1.50;;;1.40;;
4738;SDS011;2383;48.632;10.156;2022-08-02T12:02:06;4.25;;;1.80;;
4738;SDS011;2383;48.632;10.156;2022-08-02T12:06:09;2.92;;;1.60;;
4738;SDS011;2383;48.632;10.156;2022-08-02T12:10:18;1.75;;;1.50;;
4738;SDS011;2383;48.632;10.156;2022-08-02T12:14:23;3.05;;;1.80;;
4738;SDS011;2383;48.632;10.156;2022-08-02T12:18:28;3.65;;;1.40;;
4738;SDS011;2383;48.632;10.156;2022-08-02T12:22:49;2.63;;;1.65;;
4738;SDS011;2383;48.632;10.156;2022-08-02T12:26:51;1.90;;;1.65;;
4738;SDS011;2383;48.632;10.156;2022-08-02T12:30:54;1.60;;;1.50;;
4738;SDS011;2383;48.632;10.156;2022-08-02T12:35:16;2.35;;;1.55;;
4738;SDS011;2383;48.632;10.156;2022-08-02T12:43:40;1.33;;;1.27;;
4738;SDS011;2383;48.632;10.156;2022-08-02T12:47:47;1.40;;;1.30;;
4738;SDS011;2383;48.632;10.156;2022-08-02T12:51:55;1.85;;;1.63;;
4738;SDS011;2383;48.632;10.156;2022-08-02T12:56:05;1.60;;;1.50;;
4738;SDS011;2383;48.632;10.156;2022-08-02T13:00:09;1.52;;;1.42;;
4738;SDS011;2383;48.632;10.156;2022-08-02T13:04:30;4.82;;;1.48;;
4738;SDS011;2383;48.632;10.156;2022-08-02T13:08:32;1.80;;;1.55;;
4738;SDS011;2383;48.632;10.156;2022-08-02T13:12:34;4.63;;;1.40;;
4738;SDS011;2383;48.632;10.156;2022-08-02T13:16:37;3.03;;;1.60;;
4738;SDS011;2383;48.632;10.156;2022-08-02T13:20:39;1.67;;;1.58;;
4738;SDS011;2383;48.632;10.156;2022-08-02T13:24:45;1.55;;;1.40;;
4738;SDS011;2383;48.632;10.156;2022-08-02T13:28:57;1.60;;;1.50;;
4738;SDS011;2383;48.632;10.156;2022-08-02T13:32:58;2.42;;;1.40;;
4738;SDS011;2383;48.632;10.156;2022-08-02T13:37:08;1.48;;;1.35;;
4738;SDS011;2383;48.632;10.156;2022-08-02T13:41:10;2.30;;;1.52;;
4738;SDS011;2383;48.632;10.156;2022-08-02T13:45:13;2.72;;;1.80;;
4738;SDS011;2383;48.632;10.156;2022-08-02T13:49:16;2.15;;;1.45;;
4738;SDS011;2383;48.632;10.156;2022-08-02T13:53:22;1.60;;;1.50;;
4738;SDS011;2383;48.632;10.156;2022-08-02T13:57:23;2.15;;;1.52;;
4738;SDS011;2383;48.632;10.156;2022-08-02T14:01:25;1.70;;;1.60;;
4738;SDS011;2383;48.632;10.156;2022-08-02T14:05:27;1.52;;;1.42;;
4738;SDS011;2383;48.632;10.156;2022-08-02T14:09:48;2.75;;;1.48;;
4738;SDS011;2383;48.632;10.156;2022-08-02T14:13:49;1.60;;;1.50;;
4738;SDS011;2383;48.632;10.156;2022-08-02T14:17:51;1.50;;;1.40;;
4738;SDS011;2383;48.632;10.156;2022-08-02T14:21:53;1.60;;;1.50;;
4738;SDS011;2383;48.632;10.156;2022-08-02T14:26:12;1.52;;;1.40;;
4738;SDS011;2383;48.632;10.156;2022-08-02T14:30:28;1.40;;;1.30;;
4738;SDS011;2383;48.632;10.156;2022-08-02T14:34:30;1.55;;;1.38;;
4738;SDS011;2383;48.632;10.156;2022-08-02T14:38:32;1.70;;;1.60;;
4738;SDS011;2383;48.632;10.156;2022-08-02T14:42:49;2.72;;;1.60;;
4738;SDS011;2383;48.632;10.156;2022-08-02T14:46:52;2.05;;;1.60;;
4738;SDS011;2383;48.632;10.156;2022-08-02T14:51:08;2.08;;;1.60;;
4738;SDS011;2383;48.632;10.156;2022-08-02T14:55:10;2.65;;;1.40;;
4738;SDS011;2383;48.632;10.156;2022-08-02T14:59:17;1.50;;;1.38;;
4738;SDS011;2383;48.632;10.156;2022-08-02T15:03:19;1.98;;;1.55;;
4738;SDS011;2383;48.632;10.156;2022-08-02T15:07:21;2.72;;;1.50;;
4738;SDS011;2383;48.632;10.156;2022-08-02T15:11:22;1.95;;;1.40;;
4738;SDS011;2383;48.632;10.156;2022-08-02T15:15:25;1.60;;;1.50;;
4738;SDS011;2383;48.632;10.156;2022-08-02T15:19:27;1.77;;;1.20;;
4738;SDS011;2383;48.632;10.156;2022-08-02T15:23:49;1.58;;;1.48;;
4738;SDS011;2383;48.632;10.156;2022-08-02T15:28:05;1.98;;;1.42;;
4738;SDS011;2383;48.632;10.156;2022-08-02T15:32:07;2.05;;;1.50;;
4738;SDS011;2383;48.632;10.156;2022-08-02T15:36:09;3.00;;;1.20;;
4738;SDS011;2383;48.632;10.156;2022-08-02T15:40:11;1.50;;;1.40;;
4738;SDS011;2383;48.632;10.156;2022-08-02T15:44:13;1.80;;;1.52;;
4738;SDS011;2383;48.632;10.156;2022-08-02T15:48:15;1.70;;;1.60;;
4738;SDS011;2383;48.632;10.156;2022-08-02T15:52:17;1.30;;;1.20;;
4738;SDS011;2383;48.632;10.156;2022-08-02T15:56:20;1.67;;;1.58;;
4738;SDS011;2383;48.632;10.156;2022-08-02T16:00:24;3.60;;;1.77;;
4738;SDS011;2383;48.632;10.156;2022-08-02T16:04:26;1.73;;;1.40;;
4738;SDS011;2383;48.632;10.156;2022-08-02T16:08:30;3.08;;;1.55;;
4738;SDS011;2383;48.632;10.156;2022-08-02T16:12:32;1.40;;;1.30;;
4738;SDS011;2383;48.632;10.156;2022-08-02T16:16:34;1.92;;;1.67;;
4738;SDS011;2383;48.632;10.156;2022-08-02T16:20:37;3.85;;;1.63;;
4738;SDS011;2383;48.632;10.156;2022-08-02T16:24:39;1.75;;;1.63;;
4738;SDS011;2383;48.632;10.156;2022-08-02T16:28:40;3.22;;;1.63;;
4738;SDS011;2383;48.632;10.156;2022-08-02T16:32:42;3.13;;;2.20;;
4738;SDS011;2383;48.632;10.156;2022-08-02T16:36:44;4.18;;;1.60;;
4738;SDS011;2383;48.632;10.156;2022-08-02T16:40:49;1.85;;;1.75;;
4738;SDS011;2383;48.632;10.156;2022-08-02T16:44:51;2.30;;;1.60;;
4738;SDS011;2383;48.632;10.156;2022-08-02T16:48:57;4.22;;;1.80;;
4738;SDS011;2383;48.632;10.156;2022-08-02T16:53:02;1.50;;;1.40;;
4738;SDS011;2383;48.632;10.156;2022-08-02T16:57:07;2.42;;;1.48;;
4738;SDS011;2383;48.632;10.156;2022-08-02T17:01:10;3.92;;;1.85;;
4738;SDS011;2383;48.632;10.156;2022-08-02T17:05:12;3.70;;;1.60;;
4738;SDS011;2383;48.632;10.156;2022-08-02T17:09:14;2.00;;;1.70;;
4738;SDS011;2383;48.632;10.156;2022-08-02T17:13:36;2.63;;;1.50;;
4738;SDS011;2383;48.632;10.156;2022-08-02T17:17:38;2.05;;;1.50;;
4738;SDS011;2383;48.632;10.156;2022-08-02T17:21:43;3.00;;;1.85;;
4738;SDS011;2383;48.632;10.156;2022-08-02T17:25:52;2.97;;;2.20;;
4738;SDS011;2383;48.632;10.156;2022-08-02T17:29:54;3.67;;;3.38;;
4738;SDS011;2383;48.632;10.156;2022-08-02T17:33:56;2.80;;;2.30;;
4738;SDS011;2383;48.632;10.156;2022-08-02T17:37:58;3.40;;;2.63;;
4738;SDS011;2383;48.632;10.156;2022-08-02T17:42:00;3.15;;;1.70;;
4738;SDS011;2383;48.632;10.156;2022-08-02T17:46:04;4.57;;;1.80;;
4738;SDS011;2383;48.632;10.156;2022-08-02T17:50:07;2.60;;;1.70;;
4738;SDS011;2383;48.632;10.156;2022-08-02T17:54:12;1.85;;;1.75;;
4738;SDS011;2383;48.632;10.156;2022-08-02T17:58:19;4.00;;;1.80;;
4738;SDS011;2383;48.632;10.156;2022-08-02T18:02:20;2.47;;;1.80;;
4738;SDS011;2383;48.632;10.156;2022-08-02T18:06:25;3.05;;;2.05;;
4738;SDS011;2383;48.632;10.156;2022-08-02T18:10:27;4.85;;;3.33;;
4738;SDS011;2383;48.632;10.156;2022-08-02T18:14:39;2.83;;;2.58;;
4738;SDS011;2383;48.632;10.156;2022-08-02T18:18:49;2.47;;;2.28;;
4738;SDS011;2383;48.632;10.156;2022-08-02T18:23:03;2.28;;;2.08;;
4738;SDS011;2383;48.632;10.156;2022-08-02T18:27:07;3.22;;;2.33;;
4738;SDS011;2383;48.632;10.156;2022-08-02T18:31:13;2.70;;;2.08;;
4738;SDS011;2383;48.632;10.156;2022-08-02T18:35:23;2.85;;;2.28;;
4738;SDS011;2383;48.632;10.156;2022-08-02T18:39:29;2.17;;;1.98;;
4738;SDS011;2383;48.632;10.156;2022-08-02T18:43:33;2.40;;;2.20;;
4738;SDS011;2383;48.632;10.156;2022-08-02T18:47:43;2.40;;;2.05;;
4738;SDS011;2383;48.632;10.156;2022-08-02T18:51:54;3.75;;;2.60;;
4738;SDS011;2383;48.632;10.156;2022-08-02T18:55:59;4.70;;;2.42;;
4738;SDS011;2383;48.632;10.156;2022-08-02T19:00:04;2.65;;;2.30;;
4738;SDS011;2383;48.632;10.156;2022-08-02T19:04:15;2.10;;;1.90;;
4738;SDS011;2383;48.632;10.156;2022-08-02T19:08:28;2.78;;;2.40;;
4738;SDS011;2383;48.632;10.156;2022-08-02T19:12:33;3.25;;;2.03;;
4738;SDS011;2383;48.632;10.156;2022-08-02T19:16:46;3.35;;;2.28;;
4738;SDS011;2383;48.632;10.156;2022-08-02T19:20:48;3.70;;;3.10;;
4738;SDS011;2383;48.632;10.156;2022-08-02T19:25:07;8.48;;;4.13;;
4738;SDS011;2383;48.632;10.156;2022-08-02T19:29:19;7.03;;;3.08;;
4738;SDS011;2383;48.632;10.156;2022-08-02T19:33:41;6.97;;;3.00;;
4738;SDS011;2383;48.632;10.156;2022-08-02T19:38:05;6.93;;;3.85;;
4738;SDS011;2383;48.632;10.156;2022-08-02T19:42:11;5.75;;;2.55;;
4738;SDS011;2383;48.632;10.156;2022-08-02T19:46:27;4.22;;;2.80;;
4738;SDS011;2383;48.632;10.156;2022-08-02T19:50:31;5.50;;;2.35;;
4738;SDS011;2383;48.632;10.156;2022-08-02T19:54:34;5.38;;;2.30;;
4738;SDS011;2383;48.632;10.156;2022-08-02T19:59:05;3.72;;;2.25;;
4738;SDS011;2383;48.632;10.156;2022-08-02T20:03:14;3.13;;;2.50;;
4738;SDS011;2383;48.632;10.156;2022-08-02T20:07:16;3.30;;;2.55;;
4738;SDS011;2383;48.632;10.156;2022-08-02T20:11:48;2.60;;;2.40;;
4738;SDS011;2383;48.632;10.156;2022-08-02T20:15:55;3.70;;;2.80;;
4738;SDS011;2383;48.632;10.156;2022-08-02T20:19:57;5.93;;;3.08;;
4738;SDS011;2383;48.632;10.156;2022-08-02T20:24:03;3.40;;;3.10;;
4738;SDS011;2383;48.632;10.156;2022-08-02T20:28:11;4.40;;;3.00;;
4738;SDS011;2383;48.632;10.156;2022-08-02T20:32:13;5.57;;;2.90;;
4738;SDS011;2383;48.632;10.156;2022-08-02T20:36:35;5.45;;;2.50;;
4738;SDS011;2383;48.632;10.156;2022-08-02T20:40:38;2.85;;;2.40;;
4738;SDS011;2383;48.632;10.156;2022-08-02T20:44:51;2.83;;;2.30;;
4738;SDS011;2383;48.632;10.156;2022-08-02T20:49:03;4.47;;;2.55;;
4738;SDS011;2383;48.632;10.156;2022-08-02T20:53:09;4.10;;;2.70;;
4738;SDS011;2383;48.632;10.156;2022-08-02T20:57:31;3.40;;;2.88;;
4738;SDS011;2383;48.632;10.156;2022-08-02T21:02:01;3.10;;;2.58;;
4738;SDS011;2383;48.632;10.156;2022-08-02T21:06:16;4.05;;;2.38;;
4738;SDS011;2383;48.632;10.156;2022-08-02T21:10:21;4.63;;;2.60;;
4738;SDS011;2383;48.632;10.156;2022-08-02T21:14:36;4.30;;;2.70;;
4738;SDS011;2383;48.632;10.156;2022-08-02T21:18:38;3.30;;;3.00;;
4738;SDS011;2383;48.632;10.156;2022-08-02T21:22:41;2.40;;;2.20;;
4738;SDS011;2383;48.632;10.156;2022-08-02T21:26:45;3.08;;;2.63;;
4738;SDS011;2383;48.632;10.156;2022-08-02T21:30:49;8.82;;;2.55;;
4738;SDS011;2383;48.632;10.156;2022-08-02T21:34:51;8.30;;;2.92;;
4738;SDS011;2383;48.632;10.156;2022-08-02T21:38:53;3.08;;;2.70;;
4738;SDS011;2383;48.632;10.156;2022-08-02T21:42:57;3.42;;;2.67;;
4738;SDS011;2383;48.632;10.156;2022-08-02T21:47:00;3.20;;;2.45;;
4738;SDS011;2383;48.632;10.156;2022-08-02T21:51:02;2.70;;;2.50;;
4738;SDS011;2383;48.632;10.156;2022-08-02T21:55:16;3.17;;;2.67;;
4738;SDS011;2383;48.632;10.156;2022-08-02T21:59:24;4.07;;;2.85;;
4738;SDS011;2383;48.632;10.156;2022-08-02T22:03:30;2.65;;;2.42;;
4738;SDS011;2383;48.632;10.156;2022-08-02T22:07:33;2.97;;;2.33;;
4738;SDS011;2383;48.632;10.156;2022-08-02T22:11:38;5.95;;;2.67;;
4738;SDS011;2383;48.632;10.156;2022-08-02T22:15:40;3.88;;;2.50;;
4738;SDS011;2383;48.632;10.156;2022-08-02T22:19:46;3.20;;;2.40;;
4738;SDS011;2383;48.632;10.156;2022-08-02T22:23:54;3.95;;;2.95;;
4738;SDS011;2383;48.632;10.156;2022-08-02T22:27:56;2.40;;;2.20;;
4738;SDS011;2383;48.632;10.156;2022-08-02T22:32:27;2.67;;;2.47;;
4738;SDS011;2383;48.632;10.156;2022-08-02T22:36:56;3.17;;;2.42;;
4738;SDS011;2383;48.632;10.156;2022-08-02T22:40:57;3.92;;;2.40;;
4738;SDS011;2383;48.632;10.156;2022-08-02T22:45:00;4.55;;;2.53;;
4738;SDS011;2383;48.632;10.156;2022-08-02T22:49:02;3.17;;;2.60;;
4738;SDS011;2383;48.632;10.156;2022-08-02T22:53:06;3.20;;;2.90;;
4738;SDS011;2383;48.632;10.156;2022-08-02T22:57:09;2.97;;;2.70;;
4738;SDS011;2383;48.632;10.156;2022-08-02T23:01:12;5.30;;;2.95;;
4738;SDS011;2383;48.632;10.156;2022-08-02T23:05:28;6.57;;;3.10;;
4738;SDS011;2383;48.632;10.156;2022-08-02T23:09:31;3.17;;;2.88;;
4738;SDS011;2383;48.632;10.156;2022-08-02T23:13:33;4.53;;;2.83;;
4738;SDS011;2383;48.632;10.156;2022-08-02T23:17:35;3.85;;;2.83;;
4738;SDS011;2383;48.632;10.156;2022-08-02T23:22:09;4.85;;;2.92;;
4738;SDS011;2383;48.632;10.156;2022-08-02T23:26:11;4.40;;;3.08;;
4738;SDS011;2383;48.632;10.156;2022-08-02T23:30:12;4.13;;;2.75;;
4738;SDS011;2383;48.632;10.156;2022-08-02T23:34:15;3.67;;;2.88;;
4738;SDS011;2383;48.632;10.156;2022-08-02T23:38:16;3.20;;;2.90;;
4738;SDS011;2383;48.632;10.156;2022-08-02T23:42:18;4.15;;;2.67;;
4738;SDS011;2383;48.632;10.156;2022-08-02T23:46:20;3.60;;;2.70;;
4738;SDS011;2383;48.632;10.156;2022-08-02T23:50:22;4.07;;;2.80;;
4738;SDS011;2383;48.632;10.156;2022-08-02T23:54:25;2.72;;;2.45;;
4738;SDS011;2383;48.632;10.156;2022-08-02T23:58:27;4.97;;;2.70;;
